sensor_id;sensor_type;location;lat;lon;timestamp;temperature;humidity
26583;DHT22;14230;45.382;10.998;2022-08-19T00:01:55;22.00;99.90
26583;DHT22;14230;45.382;10.998;2022-08-19T00:04:28;21.90;99.90
26583;DHT22;14230;45.382;10.998;2022-08-19T00:06:56;21.90;99.90
26583;DHT22;14230;45.382;10.998;2022-08-19T00:09:24;21.80;99.90
26583;DHT22;14230;45.382;10.998;2022-08-19T00:11:53;21.80;99.90
26583;DHT22;14230;45.382;10.998;2022-08-19T00:14:24;21.80;99.90
26583;DHT22;14230;45.382;10.998;2022-08-19T00:16:52;21.70;99.90
26583;DHT22;14230;45.382;10.998;2022-08-19T00:19:22;21.70;99.90
26583;DHT22;14230;45.382;10.998;2022-08-19T00:21:51;21.60;99.90
26583;DHT22;14230;45.382;10.998;2022-08-19T00:24:18;21.60;99.90
26583;DHT22;14230;45.382;10.998;2022-08-19T00:26:46;21.70;99.90
26583;DHT22;14230;45.382;10.998;2022-08-19T00:29:18;21.70;99.90
26583;DHT22;14230;45.382;10.998;2022-08-19T00:31:46;21.80;99.90
26583;DHT22;14230;45.382;10.998;2022-08-19T00:34:14;21.80;99.90
26583;DHT22;14230;45.382;10.998;2022-08-19T00:36:42;21.80;99.90
26583;DHT22;14230;45.382;10.998;2022-08-19T00:39:11;21.70;99.90
26583;DHT22;14230;45.382;10.998;2022-08-19T00:41:38;21.70;99.90
26583;DHT22;14230;45.382;10.998;2022-08-19T00:44:08;21.70;99.90
26583;DHT22;14230;45.382;10.998;2022-08-19T00:46:38;21.70;99.90
26583;DHT22;14230;45.382;10.998;2022-08-19T00:49:19;21.70;99.90
26583;DHT22;14230;45.382;10.998;2022-08-19T00:51:51;21.80;99.90
26583;DHT22;14230;45.382;10.998;2022-08-19T00:54:20;21.80;99.90
26583;DHT22;14230;45.382;10.998;2022-08-19T00:56:58;21.80;99.90
26583;DHT22;14230;45.382;10.998;2022-08-19T00:59:28;21.80;99.90
26583;DHT22;14230;45.382;10.998;2022-08-19T01:02:16;21.80;99.90
26583;DHT22;14230;45.382;10.998;2022-08-19T01:04:44;21.50;99.90
26583;DHT22;14230;45.382;10.998;2022-08-19T01:07:12;21.20;99.90
26583;DHT22;14230;45.382;10.998;2022-08-19T01:09:43;20.80;99.90
26583;DHT22;14230;45.382;10.998;2022-08-19T01:12:11;20.60;99.90
26583;DHT22;14230;45.382;10.998;2022-08-19T01:14:40;20.40;99.90
26583;DHT22;14230;45.382;10.998;2022-08-19T01:17:09;20.30;99.90
26583;DHT22;14230;45.382;10.998;2022-08-19T01:19:41;20.30;99.90
26583;DHT22;14230;45.382;10.998;2022-08-19T01:22:19;20.20;99.90
26583;DHT22;14230;45.382;10.998;2022-08-19T01:24:57;20.10;99.90
26583;DHT22;14230;45.382;10.998;2022-08-19T01:27:25;20.10;99.90
26583;DHT22;14230;45.382;10.998;2022-08-19T01:29:57;20.10;99.90
26583;DHT22;14230;45.382;10.998;2022-08-19T01:32:24;20.10;99.90
26583;DHT22;14230;45.382;10.998;2022-08-19T01:35:02;20.20;99.90
26583;DHT22;14230;45.382;10.998;2022-08-19T01:37:40;20.20;99.90
26583;DHT22;14230;45.382;10.998;2022-08-19T01:40:09;20.20;99.90
26583;DHT22;14230;45.382;10.998;2022-08-19T01:42:37;20.20;99.90
26583;DHT22;14230;45.382;10.998;2022-08-19T01:45:05;20.20;99.90
26583;DHT22;14230;45.382;10.998;2022-08-19T01:47:36;20.20;99.90
26583;DHT22;14230;45.382;10.998;2022-08-19T01:50:05;20.20;99.90
26583;DHT22;14230;45.382;10.998;2022-08-19T01:52:35;20.20;99.90
26583;DHT22;14230;45.382;10.998;2022-08-19T01:55:06;20.10;99.90
26583;DHT22;14230;45.382;10.998;2022-08-19T01:57:34;20.10;99.90
26583;DHT22;14230;45.382;10.998;2022-08-19T02:00:06;20.10;99.90
26583;DHT22;14230;45.382;10.998;2022-08-19T02:02:37;20.10;99.90
26583;DHT22;14230;45.382;10.998;2022-08-19T02:05:05;20.10;99.90
26583;DHT22;14230;45.382;10.998;2022-08-19T02:07:38;20.10;99.90
26583;DHT22;14230;45.382;10.998;2022-08-19T02:10:10;20.00;99.90
26583;DHT22;14230;45.382;10.998;2022-08-19T02:12:43;20.00;99.90
26583;DHT22;14230;45.382;10.998;2022-08-19T02:15:11;20.00;99.90
26583;DHT22;14230;45.382;10.998;2022-08-19T02:17:39;20.00;99.90
26583;DHT22;14230;45.382;10.998;2022-08-19T02:20:08;19.90;99.90
26583;DHT22;14230;45.382;10.998;2022-08-19T02:22:35;19.90;99.90
26583;DHT22;14230;45.382;10.998;2022-08-19T02:25:03;19.90;99.90
26583;DHT22;14230;45.382;10.998;2022-08-19T02:27:32;19.90;99.90
26583;DHT22;14230;45.382;10.998;2022-08-19T02:30:01;19.90;99.90
26583;DHT22;14230;45.382;10.998;2022-08-19T02:32:28;19.90;99.90
26583;DHT22;14230;45.382;10.998;2022-08-19T02:34:57;19.90;99.90
26583;DHT22;14230;45.382;10.998;2022-08-19T02:37:25;19.90;99.90
26583;DHT22;14230;45.382;10.998;2022-08-19T02:40:11;19.90;99.90
26583;DHT22;14230;45.382;10.998;2022-08-19T02:42:39;19.90;99.90
26583;DHT22;14230;45.382;10.998;2022-08-19T02:45:08;19.90;99.90
26583;DHT22;14230;45.382;10.998;2022-08-19T02:47:36;19.80;99.90
26583;DHT22;14230;45.382;10.998;2022-08-19T02:50:04;19.80;99.90
26583;DHT22;14230;45.382;10.998;2022-08-19T02:52:33;19.80;99.90
26583;DHT22;14230;45.382;10.998;2022-08-19T02:55:01;19.80;99.90
26583;DHT22;14230;45.382;10.998;2022-08-19T02:57:30;19.80;99.90
26583;DHT22;14230;45.382;10.998;2022-08-19T02:59:59;19.80;99.90
26583;DHT22;14230;45.382;10.998;2022-08-19T03:02:26;19.80;99.90
26583;DHT22;14230;45.382;10.998;2022-08-19T03:04:54;19.80;99.90
26583;DHT22;14230;45.382;10.998;2022-08-19T03:07:21;19.90;99.90
26583;DHT22;14230;45.382;10.998;2022-08-19T03:09:49;19.90;99.90
26583;DHT22;14230;45.382;10.998;2022-08-19T03:12:16;19.90;99.90
26583;DHT22;14230;45.382;10.998;2022-08-19T03:14:44;19.90;99.90
26583;DHT22;14230;45.382;10.998;2022-08-19T03:17:12;20.00;99.90
26583;DHT22;14230;45.382;10.998;2022-08-19T03:19:40;20.00;99.90
26583;DHT22;14230;45.382;10.998;2022-08-19T03:22:08;20.00;99.90
26583;DHT22;14230;45.382;10.998;2022-08-19T03:24:35;20.00;99.90
26583;DHT22;14230;45.382;10.998;2022-08-19T03:27:04;20.00;99.90
26583;DHT22;14230;45.382;10.998;2022-08-19T03:29:32;20.00;99.90
26583;DHT22;14230;45.382;10.998;2022-08-19T03:32:10;20.00;99.90
26583;DHT22;14230;45.382;10.998;2022-08-19T03:34:57;20.10;99.90
26583;DHT22;14230;45.382;10.998;2022-08-19T03:37:25;20.00;99.90
26583;DHT22;14230;45.382;10.998;2022-08-19T03:39:53;20.00;99.90
26583;DHT22;14230;45.382;10.998;2022-08-19T03:42:20;20.00;99.90
26583;DHT22;14230;45.382;10.998;2022-08-19T03:45:08;20.00;99.90
26583;DHT22;14230;45.382;10.998;2022-08-19T03:47:37;20.10;99.90
26583;DHT22;14230;45.382;10.998;2022-08-19T03:50:05;20.10;99.90
26583;DHT22;14230;45.382;10.998;2022-08-19T03:52:32;20.10;99.90
26583;DHT22;14230;45.382;10.998;2022-08-19T03:55:00;20.10;99.90
26583;DHT22;14230;45.382;10.998;2022-08-19T03:57:27;20.10;99.90
26583;DHT22;14230;45.382;10.998;2022-08-19T03:59:58;20.10;99.90
26583;DHT22;14230;45.382;10.998;2022-08-19T04:02:41;20.10;99.90
26583;DHT22;14230;45.382;10.998;2022-08-19T04:05:25;20.20;99.90
26583;DHT22;14230;45.382;10.998;2022-08-19T04:07:54;20.20;99.90
26583;DHT22;14230;45.382;10.998;2022-08-19T04:10:25;20.20;99.90
26583;DHT22;14230;45.382;10.998;2022-08-19T04:12:52;20.30;99.90
26583;DHT22;14230;45.382;10.998;2022-08-19T04:15:20;20.30;99.90
26583;DHT22;14230;45.382;10.998;2022-08-19T04:17:48;20.30;99.90
26583;DHT22;14230;45.382;10.998;2022-08-19T04:20:15;20.30;99.90
26583;DHT22;14230;45.382;10.998;2022-08-19T04:22:42;20.40;99.90
26583;DHT22;14230;45.382;10.998;2022-08-19T04:25:10;20.30;99.90
26583;DHT22;14230;45.382;10.998;2022-08-19T04:27:37;20.30;99.90
26583;DHT22;14230;45.382;10.998;2022-08-19T04:30:05;20.30;99.90
26583;DHT22;14230;45.382;10.998;2022-08-19T04:32:33;20.30;99.90
26583;DHT22;14230;45.382;10.998;2022-08-19T04:35:02;20.30;99.90
26583;DHT22;14230;45.382;10.998;2022-08-19T04:37:45;20.40;99.90
26583;DHT22;14230;45.382;10.998;2022-08-19T04:40:13;20.40;99.90
26583;DHT22;14230;45.382;10.998;2022-08-19T04:42:58;20.30;99.90
26583;DHT22;14230;45.382;10.998;2022-08-19T04:45:26;20.30;99.90
26583;DHT22;14230;45.382;10.998;2022-08-19T04:47:55;20.40;99.90
26583;DHT22;14230;45.382;10.998;2022-08-19T04:50:46;20.50;99.90
26583;DHT22;14230;45.382;10.998;2022-08-19T04:53:14;20.60;99.90
26583;DHT22;14230;45.382;10.998;2022-08-19T04:55:42;20.70;99.90
26583;DHT22;14230;45.382;10.998;2022-08-19T04:58:10;20.90;99.90
26583;DHT22;14230;45.382;10.998;2022-08-19T05:00:38;21.10;99.90
26583;DHT22;14230;45.382;10.998;2022-08-19T05:03:07;21.30;99.90
26583;DHT22;14230;45.382;10.998;2022-08-19T05:05:41;21.50;99.90
26583;DHT22;14230;45.382;10.998;2022-08-19T05:08:13;21.50;99.90
26583;DHT22;14230;45.382;10.998;2022-08-19T05:10:42;21.60;99.90
26583;DHT22;14230;45.382;10.998;2022-08-19T05:13:10;21.60;99.90
26583;DHT22;14230;45.382;10.998;2022-08-19T05:15:38;21.70;99.90
26583;DHT22;14230;45.382;10.998;2022-08-19T05:18:05;21.70;99.90
26583;DHT22;14230;45.382;10.998;2022-08-19T05:20:51;21.70;99.90
26583;DHT22;14230;45.382;10.998;2022-08-19T05:23:37;21.60;99.90
26583;DHT22;14230;45.382;10.998;2022-08-19T05:26:05;21.60;99.90
26583;DHT22;14230;45.382;10.998;2022-08-19T05:28:32;21.60;99.90
26583;DHT22;14230;45.382;10.998;2022-08-19T05:31:00;21.60;99.90
26583;DHT22;14230;45.382;10.998;2022-08-19T05:33:27;21.60;99.90
26583;DHT22;14230;45.382;10.998;2022-08-19T05:35:55;21.60;99.90
26583;DHT22;14230;45.382;10.998;2022-08-19T05:38:23;21.60;99.90
26583;DHT22;14230;45.382;10.998;2022-08-19T05:40:50;21.60;99.90
26583;DHT22;14230;45.382;10.998;2022-08-19T05:43:18;21.50;99.90
26583;DHT22;14230;45.382;10.998;2022-08-19T05:45:46;21.40;99.90
26583;DHT22;14230;45.382;10.998;2022-08-19T05:48:14;21.30;99.90
26583;DHT22;14230;45.382;10.998;2022-08-19T05:50:41;21.30;99.90
26583;DHT22;14230;45.382;10.998;2022-08-19T05:53:09;21.30;99.90
26583;DHT22;14230;45.382;10.998;2022-08-19T05:55:36;21.30;99.90
26583;DHT22;14230;45.382;10.998;2022-08-19T05:58:05;21.30;99.90
26583;DHT22;14230;45.382;10.998;2022-08-19T06:00:36;21.30;99.90
26583;DHT22;14230;45.382;10.998;2022-08-19T06:03:04;21.30;99.90
26583;DHT22;14230;45.382;10.998;2022-08-19T06:05:39;21.30;99.90
26583;DHT22;14230;45.382;10.998;2022-08-19T06:08:17;21.20;99.90
26583;DHT22;14230;45.382;10.998;2022-08-19T06:10:45;21.20;99.90
26583;DHT22;14230;45.382;10.998;2022-08-19T06:13:12;21.20;99.90
26583;DHT22;14230;45.382;10.998;2022-08-19T06:15:40;21.20;99.90
26583;DHT22;14230;45.382;10.998;2022-08-19T06:18:11;21.20;99.90
26583;DHT22;14230;45.382;10.998;2022-08-19T06:20:39;21.20;99.90
26583;DHT22;14230;45.382;10.998;2022-08-19T06:23:22;21.20;99.90
26583;DHT22;14230;45.382;10.998;2022-08-19T06:25:50;21.20;99.90
26583;DHT22;14230;45.382;10.998;2022-08-19T06:28:21;21.20;99.90
26583;DHT22;14230;45.382;10.998;2022-08-19T06:30:50;21.20;99.90
26583;DHT22;14230;45.382;10.998;2022-08-19T06:33:18;21.20;99.90
26583;DHT22;14230;45.382;10.998;2022-08-19T06:35:46;21.20;99.90
26583;DHT22;14230;45.382;10.998;2022-08-19T06:38:13;21.10;99.90
26583;DHT22;14230;45.382;10.998;2022-08-19T06:40:41;21.10;99.90
26583;DHT22;14230;45.382;10.998;2022-08-19T06:43:13;21.20;99.90
26583;DHT22;14230;45.382;10.998;2022-08-19T06:45:44;21.20;99.90
26583;DHT22;14230;45.382;10.998;2022-08-19T06:48:13;21.30;99.90
26583;DHT22;14230;45.382;10.998;2022-08-19T06:50:44;21.20;99.90
26583;DHT22;14230;45.382;10.998;2022-08-19T06:53:12;21.20;99.90
26583;DHT22;14230;45.382;10.998;2022-08-19T06:55:39;21.20;99.90
26583;DHT22;14230;45.382;10.998;2022-08-19T06:58:08;21.10;99.90
26583;DHT22;14230;45.382;10.998;2022-08-19T07:00:36;21.10;99.90
26583;DHT22;14230;45.382;10.998;2022-08-19T07:03:04;21.00;99.90
26583;DHT22;14230;45.382;10.998;2022-08-19T07:05:40;21.00;99.90
26583;DHT22;14230;45.382;10.998;2022-08-19T07:08:13;21.10;99.90
26583;DHT22;14230;45.382;10.998;2022-08-19T07:10:44;21.10;99.90
26583;DHT22;14230;45.382;10.998;2022-08-19T07:13:12;21.10;99.90
26583;DHT22;14230;45.382;10.998;2022-08-19T07:15:39;21.00;99.90
26583;DHT22;14230;45.382;10.998;2022-08-19T07:18:06;21.00;99.90
26583;DHT22;14230;45.382;10.998;2022-08-19T07:20:39;21.00;99.90
26583;DHT22;14230;45.382;10.998;2022-08-19T07:23:08;21.00;99.90
26583;DHT22;14230;45.382;10.998;2022-08-19T07:25:42;21.00;99.90
26583;DHT22;14230;45.382;10.998;2022-08-19T07:28:10;20.90;99.90
26583;DHT22;14230;45.382;10.998;2022-08-19T07:30:51;20.90;99.90
26583;DHT22;14230;45.382;10.998;2022-08-19T07:33:19;20.90;99.90
26583;DHT22;14230;45.382;10.998;2022-08-19T07:35:47;20.90;99.90
26583;DHT22;14230;45.382;10.998;2022-08-19T07:38:15;20.90;99.90
26583;DHT22;14230;45.382;10.998;2022-08-19T07:40:44;20.90;99.90
26583;DHT22;14230;45.382;10.998;2022-08-19T07:43:14;20.90;99.90
26583;DHT22;14230;45.382;10.998;2022-08-19T07:45:44;20.80;99.90
26583;DHT22;14230;45.382;10.998;2022-08-19T07:48:12;20.80;99.90
26583;DHT22;14230;45.382;10.998;2022-08-19T07:50:40;20.80;99.90
26583;DHT22;14230;45.382;10.998;2022-08-19T07:53:07;20.80;99.90
26583;DHT22;14230;45.382;10.998;2022-08-19T07:55:35;20.70;99.90
26583;DHT22;14230;45.382;10.998;2022-08-19T07:58:11;20.70;99.90
26583;DHT22;14230;45.382;10.998;2022-08-19T08:00:41;20.60;99.90
26583;DHT22;14230;45.382;10.998;2022-08-19T08:03:09;20.60;99.90
26583;DHT22;14230;45.382;10.998;2022-08-19T08:05:37;20.60;99.90
26583;DHT22;14230;45.382;10.998;2022-08-19T08:08:23;20.60;99.90
26583;DHT22;14230;45.382;10.998;2022-08-19T08:11:16;20.60;99.90
26583;DHT22;14230;45.382;10.998;2022-08-19T08:13:47;20.60;99.90
26583;DHT22;14230;45.382;10.998;2022-08-19T08:16:28;20.60;99.90
26583;DHT22;14230;45.382;10.998;2022-08-19T08:18:58;20.60;99.90
26583;DHT22;14230;45.382;10.998;2022-08-19T08:21:27;20.50;99.90
26583;DHT22;14230;45.382;10.998;2022-08-19T08:23:54;20.50;99.90
26583;DHT22;14230;45.382;10.998;2022-08-19T08:26:23;20.40;99.90
26583;DHT22;14230;45.382;10.998;2022-08-19T08:28:51;20.30;99.90
26583;DHT22;14230;45.382;10.998;2022-08-19T08:31:19;20.30;99.90
26583;DHT22;14230;45.382;10.998;2022-08-19T08:33:47;20.30;99.90
26583;DHT22;14230;45.382;10.998;2022-08-19T08:36:15;20.20;99.90
26583;DHT22;14230;45.382;10.998;2022-08-19T08:38:44;20.10;99.90
26583;DHT22;14230;45.382;10.998;2022-08-19T08:44:03;20.20;99.90
26583;DHT22;14230;45.382;10.998;2022-08-19T08:46:48;20.20;99.90
26583;DHT22;14230;45.382;10.998;2022-08-19T08:49:40;20.20;99.90
26583;DHT22;14230;45.382;10.998;2022-08-19T08:54:50;20.00;99.90
26583;DHT22;14230;45.382;10.998;2022-08-19T09:00:36;19.90;99.90
26583;DHT22;14230;45.382;10.998;2022-08-19T09:03:16;19.80;99.90
26583;DHT22;14230;45.382;10.998;2022-08-19T09:06:07;19.90;99.90
26583;DHT22;14230;45.382;10.998;2022-08-19T09:09:12;19.90;99.90
26583;DHT22;14230;45.382;10.998;2022-08-19T09:12:25;20.00;99.90
26583;DHT22;14230;45.382;10.998;2022-08-19T09:15:07;20.10;99.90
26583;DHT22;14230;45.382;10.998;2022-08-19T09:17:36;20.10;99.90
26583;DHT22;14230;45.382;10.998;2022-08-19T09:22:37;20.10;99.90
26583;DHT22;14230;45.382;10.998;2022-08-19T09:27:56;20.10;99.90
26583;DHT22;14230;45.382;10.998;2022-08-19T09:30:38;20.20;99.90
26583;DHT22;14230;45.382;10.998;2022-08-19T09:33:08;20.20;99.90
26583;DHT22;14230;45.382;10.998;2022-08-19T09:35:36;20.20;99.90
26583;DHT22;14230;45.382;10.998;2022-08-19T09:38:18;20.30;99.90
26583;DHT22;14230;45.382;10.998;2022-08-19T09:40:47;20.40;99.90
26583;DHT22;14230;45.382;10.998;2022-08-19T09:43:14;20.40;99.90
26583;DHT22;14230;45.382;10.998;2022-08-19T09:46:01;20.50;99.90
26583;DHT22;14230;45.382;10.998;2022-08-19T09:48:28;20.70;99.90
26583;DHT22;14230;45.382;10.998;2022-08-19T09:51:03;20.80;99.90
26583;DHT22;14230;45.382;10.998;2022-08-19T09:53:31;20.90;99.90
26583;DHT22;14230;45.382;10.998;2022-08-19T09:56:01;21.00;99.90
26583;DHT22;14230;45.382;10.998;2022-08-19T09:58:31;21.20;99.90
26583;DHT22;14230;45.382;10.998;2022-08-19T10:00:59;21.30;99.90
26583;DHT22;14230;45.382;10.998;2022-08-19T10:03:28;21.40;99.90
26583;DHT22;14230;45.382;10.998;2022-08-19T10:05:58;21.50;99.90
26583;DHT22;14230;45.382;10.998;2022-08-19T10:08:28;21.60;99.90
26583;DHT22;14230;45.382;10.998;2022-08-19T10:10:57;21.80;99.90
26583;DHT22;14230;45.382;10.998;2022-08-19T10:13:28;21.90;99.90
26583;DHT22;14230;45.382;10.998;2022-08-19T10:16:10;22.10;99.90
26583;DHT22;14230;45.382;10.998;2022-08-19T10:18:38;22.30;99.90
26583;DHT22;14230;45.382;10.998;2022-08-19T10:21:15;22.50;99.90
26583;DHT22;14230;45.382;10.998;2022-08-19T10:23:45;22.50;99.90
26583;DHT22;14230;45.382;10.998;2022-08-19T10:26:17;22.60;99.90
26583;DHT22;14230;45.382;10.998;2022-08-19T10:28:45;22.70;99.90
26583;DHT22;14230;45.382;10.998;2022-08-19T10:31:17;22.60;99.90
26583;DHT22;14230;45.382;10.998;2022-08-19T10:34:06;22.60;99.90
26583;DHT22;14230;45.382;10.998;2022-08-19T10:36:38;22.70;99.90
26583;DHT22;14230;45.382;10.998;2022-08-19T10:39:22;22.70;99.90
26583;DHT22;14230;45.382;10.998;2022-08-19T10:41:56;23.00;99.90
26583;DHT22;14230;45.382;10.998;2022-08-19T10:44:25;23.30;99.90
26583;DHT22;14230;45.382;10.998;2022-08-19T10:46:59;23.60;99.90
26583;DHT22;14230;45.382;10.998;2022-08-19T10:49:27;23.80;99.90
26583;DHT22;14230;45.382;10.998;2022-08-19T10:51:55;24.00;99.90
26583;DHT22;14230;45.382;10.998;2022-08-19T10:54:48;24.00;99.90
26583;DHT22;14230;45.382;10.998;2022-08-19T10:57:38;24.20;99.90
26583;DHT22;14230;45.382;10.998;2022-08-19T11:00:25;24.60;99.90
26583;DHT22;14230;45.382;10.998;2022-08-19T11:02:53;24.90;99.90
26583;DHT22;14230;45.382;10.998;2022-08-19T11:05:20;25.00;99.90
26583;DHT22;14230;45.382;10.998;2022-08-19T11:07:50;25.00;99.90
26583;DHT22;14230;45.382;10.998;2022-08-19T11:10:19;24.90;99.90
26583;DHT22;14230;45.382;10.998;2022-08-19T11:12:49;25.10;99.90
26583;DHT22;14230;45.382;10.998;2022-08-19T11:15:17;25.30;99.90
26583;DHT22;14230;45.382;10.998;2022-08-19T11:17:45;25.60;99.90
26583;DHT22;14230;45.382;10.998;2022-08-19T11:20:14;25.80;99.90
26583;DHT22;14230;45.382;10.998;2022-08-19T11:22:42;25.90;99.90
26583;DHT22;14230;45.382;10.998;2022-08-19T11:25:10;26.40;99.90
26583;DHT22;14230;45.382;10.998;2022-08-19T11:27:40;26.70;99.90
26583;DHT22;14230;45.382;10.998;2022-08-19T11:30:13;26.80;99.90
26583;DHT22;14230;45.382;10.998;2022-08-19T11:32:42;26.90;99.90
26583;DHT22;14230;45.382;10.998;2022-08-19T11:35:15;26.80;99.90
26583;DHT22;14230;45.382;10.998;2022-08-19T11:37:43;26.80;99.90
26583;DHT22;14230;45.382;10.998;2022-08-19T11:40:11;26.60;99.90
26583;DHT22;14230;45.382;10.998;2022-08-19T11:42:39;26.50;99.90
26583;DHT22;14230;45.382;10.998;2022-08-19T11:45:26;26.40;99.90
26583;DHT22;14230;45.382;10.998;2022-08-19T11:47:55;26.40;99.90
26583;DHT22;14230;45.382;10.998;2022-08-19T11:50:23;26.40;99.90
26583;DHT22;14230;45.382;10.998;2022-08-19T11:52:56;26.40;99.90
26583;DHT22;14230;45.382;10.998;2022-08-19T11:55:23;26.40;99.90
26583;DHT22;14230;45.382;10.998;2022-08-19T11:57:51;26.20;99.90
26583;DHT22;14230;45.382;10.998;2022-08-19T12:00:19;26.20;99.90
26583;DHT22;14230;45.382;10.998;2022-08-19T12:02:46;26.20;99.90
26583;DHT22;14230;45.382;10.998;2022-08-19T12:05:14;26.30;99.90
26583;DHT22;14230;45.382;10.998;2022-08-19T12:07:41;26.30;99.90
26583;DHT22;14230;45.382;10.998;2022-08-19T12:10:10;26.20;99.90
26583;DHT22;14230;45.382;10.998;2022-08-19T12:12:38;26.30;99.90
26583;DHT22;14230;45.382;10.998;2022-08-19T12:15:10;26.30;99.90
26583;DHT22;14230;45.382;10.998;2022-08-19T12:17:39;26.40;99.90
26583;DHT22;14230;45.382;10.998;2022-08-19T12:20:09;26.40;99.90
26583;DHT22;14230;45.382;10.998;2022-08-19T12:22:37;26.40;99.90
26583;DHT22;14230;45.382;10.998;2022-08-19T12:25:06;26.50;99.90
26583;DHT22;14230;45.382;10.998;2022-08-19T12:27:34;26.50;99.90
26583;DHT22;14230;45.382;10.998;2022-08-19T12:30:10;26.60;99.90
26583;DHT22;14230;45.382;10.998;2022-08-19T12:32:38;26.40;99.90
26583;DHT22;14230;45.382;10.998;2022-08-19T12:35:06;26.30;99.90
26583;DHT22;14230;45.382;10.998;2022-08-19T12:37:36;26.00;99.90
26583;DHT22;14230;45.382;10.998;2022-08-19T12:40:05;25.80;99.90
26583;DHT22;14230;45.382;10.998;2022-08-19T12:42:32;25.80;99.90
26583;DHT22;14230;45.382;10.998;2022-08-19T12:45:00;25.80;99.90
26583;DHT22;14230;45.382;10.998;2022-08-19T12:47:27;25.80;99.90
26583;DHT22;14230;45.382;10.998;2022-08-19T12:49:57;25.80;99.90
26583;DHT22;14230;45.382;10.998;2022-08-19T12:52:26;25.90;99.90
26583;DHT22;14230;45.382;10.998;2022-08-19T12:54:56;25.90;99.90
26583;DHT22;14230;45.382;10.998;2022-08-19T12:57:25;26.10;99.90
26583;DHT22;14230;45.382;10.998;2022-08-19T13:00:11;26.10;99.90
26583;DHT22;14230;45.382;10.998;2022-08-19T13:02:40;26.30;99.90
26583;DHT22;14230;45.382;10.998;2022-08-19T13:05:11;26.40;99.90
26583;DHT22;14230;45.382;10.998;2022-08-19T13:07:40;26.30;99.90
26583;DHT22;14230;45.382;10.998;2022-08-19T13:10:10;26.40;99.90
26583;DHT22;14230;45.382;10.998;2022-08-19T13:12:39;26.40;99.90
26583;DHT22;14230;45.382;10.998;2022-08-19T13:15:09;26.40;99.90
26583;DHT22;14230;45.382;10.998;2022-08-19T13:17:38;26.60;99.90
26583;DHT22;14230;45.382;10.998;2022-08-19T13:20:07;26.50;99.90
26583;DHT22;14230;45.382;10.998;2022-08-19T13:22:36;26.80;99.90
26583;DHT22;14230;45.382;10.998;2022-08-19T13:25:08;26.80;99.90
26583;DHT22;14230;45.382;10.998;2022-08-19T13:27:37;26.70;99.90
26583;DHT22;14230;45.382;10.998;2022-08-19T13:30:08;26.90;99.90
26583;DHT22;14230;45.382;10.998;2022-08-19T13:32:54;27.00;99.90
26583;DHT22;14230;45.382;10.998;2022-08-19T13:35:56;27.10;99.90
26583;DHT22;14230;45.382;10.998;2022-08-19T13:38:24;27.00;99.90
26583;DHT22;14230;45.382;10.998;2022-08-19T13:40:54;27.10;99.90
26583;DHT22;14230;45.382;10.998;2022-08-19T13:43:24;27.30;99.90
26583;DHT22;14230;45.382;10.998;2022-08-19T13:45:53;27.50;99.90
26583;DHT22;14230;45.382;10.998;2022-08-19T13:48:24;27.70;99.90
26583;DHT22;14230;45.382;10.998;2022-08-19T13:50:53;27.70;99.90
26583;DHT22;14230;45.382;10.998;2022-08-19T13:53:22;27.70;99.90
26583;DHT22;14230;45.382;10.998;2022-08-19T13:55:50;27.60;99.90
26583;DHT22;14230;45.382;10.998;2022-08-19T13:58:18;27.40;99.90
26583;DHT22;14230;45.382;10.998;2022-08-19T14:00:46;27.40;99.90
26583;DHT22;14230;45.382;10.998;2022-08-19T14:03:14;27.40;99.90
26583;DHT22;14230;45.382;10.998;2022-08-19T14:05:41;27.50;99.90
26583;DHT22;14230;45.382;10.998;2022-08-19T14:08:09;27.60;99.90
26583;DHT22;14230;45.382;10.998;2022-08-19T14:10:36;27.60;99.90
26583;DHT22;14230;45.382;10.998;2022-08-19T14:13:04;27.70;99.90
26583;DHT22;14230;45.382;10.998;2022-08-19T14:15:32;27.80;99.90
26583;DHT22;14230;45.382;10.998;2022-08-19T14:17:59;27.70;99.90
26583;DHT22;14230;45.382;10.998;2022-08-19T14:20:27;27.50;99.90
26583;DHT22;14230;45.382;10.998;2022-08-19T14:22:55;27.50;99.90
26583;DHT22;14230;45.382;10.998;2022-08-19T14:25:25;27.60;99.90
26583;DHT22;14230;45.382;10.998;2022-08-19T14:27:53;27.60;99.90
26583;DHT22;14230;45.382;10.998;2022-08-19T14:30:27;27.70;99.90
26583;DHT22;14230;45.382;10.998;2022-08-19T14:32:56;27.60;99.90
26583;DHT22;14230;45.382;10.998;2022-08-19T14:35:26;27.50;99.90
26583;DHT22;14230;45.382;10.998;2022-08-19T14:37:55;27.40;99.90
26583;DHT22;14230;45.382;10.998;2022-08-19T14:40:27;27.40;99.90
26583;DHT22;14230;45.382;10.998;2022-08-19T14:42:56;27.30;99.90
26583;DHT22;14230;45.382;10.998;2022-08-19T14:45:28;27.30;99.90
26583;DHT22;14230;45.382;10.998;2022-08-19T14:47:56;27.10;99.90
26583;DHT22;14230;45.382;10.998;2022-08-19T14:50:23;27.10;99.90
26583;DHT22;14230;45.382;10.998;2022-08-19T14:53:00;27.00;99.90
26583;DHT22;14230;45.382;10.998;2022-08-19T14:55:43;27.00;99.90
26583;DHT22;14230;45.382;10.998;2022-08-19T14:58:12;26.90;99.90
26583;DHT22;14230;45.382;10.998;2022-08-19T15:00:59;26.80;99.90
26583;DHT22;14230;45.382;10.998;2022-08-19T15:03:27;26.80;99.90
26583;DHT22;14230;45.382;10.998;2022-08-19T15:05:56;26.90;99.90
26583;DHT22;14230;45.382;10.998;2022-08-19T15:08:25;26.90;99.90
26583;DHT22;14230;45.382;10.998;2022-08-19T15:10:54;26.90;99.90
26583;DHT22;14230;45.382;10.998;2022-08-19T15:13:22;27.00;99.90
26583;DHT22;14230;45.382;10.998;2022-08-19T15:15:52;27.00;99.90
26583;DHT22;14230;45.382;10.998;2022-08-19T15:18:20;27.10;99.90
26583;DHT22;14230;45.382;10.998;2022-08-19T15:20:48;27.30;99.90
26583;DHT22;14230;45.382;10.998;2022-08-19T15:23:17;27.30;99.90
26583;DHT22;14230;45.382;10.998;2022-08-19T15:25:45;27.30;99.90
26583;DHT22;14230;45.382;10.998;2022-08-19T15:28:13;27.10;99.90
26583;DHT22;14230;45.382;10.998;2022-08-19T15:30:44;26.90;99.90
26583;DHT22;14230;45.382;10.998;2022-08-19T15:33:12;26.90;99.90
26583;DHT22;14230;45.382;10.998;2022-08-19T15:35:43;26.80;99.90
26583;DHT22;14230;45.382;10.998;2022-08-19T15:38:11;26.80;99.90
26583;DHT22;14230;45.382;10.998;2022-08-19T15:40:41;26.90;99.90
26583;DHT22;14230;45.382;10.998;2022-08-19T15:43:08;26.80;99.90
26583;DHT22;14230;45.382;10.998;2022-08-19T15:45:36;26.80;99.90
26583;DHT22;14230;45.382;10.998;2022-08-19T15:48:04;26.90;99.90
26583;DHT22;14230;45.382;10.998;2022-08-19T15:50:32;26.90;99.90
26583;DHT22;14230;45.382;10.998;2022-08-19T15:53:06;26.90;99.90